バミューダ の空港の天気 - METARとTAF

バミューダ国際空港 ( TXKF / BDA ) - バミューダ諸島 Ferry Reach
飛行場実況気象(Metar)
観測時間02/01 04:55 AST (02/01 08:55 UTC)
風向・風速北北西 4m/s
視程10km以上
天気現象
少しの雲 雲底高度 490m
少しの雲 雲底高度 9140m
気温19℃
湿度88%
気圧1019hPa
METARTXKF 010855Z 33007KT 9999 FEW016 FEW300 19/17 Q1019
過去の天気等 Google飛行場航空写真 Wunderground天気予報

過去48時間のMETAR

飛行場予報(TAF)
発表時間: 2/01 01:36 AST (2/01 05:36 UTC)
予報対象時間: 1日2時 AST ~ 2日2時 AST
風向・風速北北西 3m/s
視程10km以上
少しの雲 雲底高度 430m
全天の4割程度の雲 雲底高度 910m
1日8時 AST ~ 1日11時 AST に徐々に
風向・風速西 6m/s
少しの雲 雲底高度 910m
全天の4割程度の雲 雲底高度 9140m
1日17時 AST ~ 2日2時 AST に 確率 30% で一時的に
風向・風速西南西 8m/s 瞬間風速 15m/s
天気現象弱いしゅう雨
全天の8割程度の雲 雲底高度 460m
TAF TXKF 010536Z 0106/0206 33006KT 9999 FEW014 SCT030
BECMG 0112/0115 27012KT FEW030 SCT300
PROB30 TEMPO 0121/0206 25015G30KT -SHRA BKN015